Latest Weather Observations for Lombadina

IDW60801

Issued at 5:53 am WST Wednesday 8 December 2021 (issued every 10 minutes, with the page automatically refreshed every 10 minutes)

About weather observations | Map of weather stations | Latest weather observations for WA | Other Formats
Station Details ID: 503016 Name: LOMBADINA AIRSTRIP Lat: -16.52 Lon: 122.92 Height: 42.0 m
Data from the previous 72 hours. | See also: Recent months for locations in Western Australia
Date/Time
WST
Temp
°C
App
Temp
°C
Dew
Point
°C
Rel
Hum
%
Delta-T
°C
Wind Press
QNH
hPa
Press
MSL
hPa
Rain since
9am
mm
Dir  Spd
km/h
Gust
km/h
Spd
kts
Gust
kts
08/05:30am 27.8 35.0 26.2 91 1.1 CALM 0 4 0 2 1007.7 1007.3 -
08/05:00am 27.9 34.7 26.1 90 1.3 SW 2 4 1 2 1007.5 1007.1 -
08/04:30am 28.0 34.3 26.0 89 1.4 WSW 4 7 2 4 1006.9 1006.5 -
08/04:00am 28.3 34.0 25.9 87 1.7 W 7 17 4 9 1006.8 1006.4 -
08/03:30am 28.3 34.3 26.1 88 1.6 W 6 9 3 5 1006.7 1006.3 -
08/03:00am 28.4 33.9 25.6 85 2.0 W 7 19 4 10 1006.9 1006.5 0.0
08/02:30am 28.6 33.1 25.8 85 2.0 WNW 13 20 7 11 1006.4 1006.0 -
08/02:00am 28.8 33.4 26.0 85 2.0 WNW 13 20 7 11 1006.4 1006.0 -
08/01:30am 28.7 34.2 26.1 86 1.8 WNW 9 19 5 10 1006.5 1006.1 -
08/01:00am 28.6 34.0 26.0 86 1.8 WNW 9 17 5 9 1006.7 1006.3 -
08/12:30am 28.8 34.8 26.4 87 1.7 WNW 7 15 4 8 1007.1 1006.7 -
08/12:00am 28.7 34.4 25.9 85 2.0 WNW 7 15 4 8 1007.4 1007.0 -
 
Date/Time
WST
Temp
°C
App
Temp
°C
Dew
Point
°C
Rel
Hum
%
Delta-T
°C
Wind Press
QNH
hPa
Press
MSL
hPa
Rain since
9am
mm
Dir  Spd
km/h
Gust
km/h
Spd
kts
Gust
kts
07/11:30pm 28.9 34.4 26.1 85 2.0 W 9 15 5 8 1008.0 1007.6 -
07/11:00pm 28.9 34.7 26.1 85 2.0 W 7 15 4 8 1008.4 1008.0 -
07/10:30pm 28.8 34.3 26.2 86 1.9 W 9 17 5 9 1008.3 1007.9 -
07/10:00pm 28.8 34.3 26.2 86 1.9 W 9 17 5 9 1008.3 1007.9 -
07/09:30pm 28.9 34.9 26.3 86 1.9 W 7 15 4 8 1008.4 1008.0 -
07/09:00pm 28.9 34.5 26.3 86 1.9 WSW 9 20 5 11 1008.2 1007.8 0.0
07/08:30pm 28.9 34.6 26.5 87 1.7 W 9 19 5 10 1007.9 1007.5 -
07/08:00pm 29.1 34.8 26.5 86 1.9 WNW 9 15 5 8 1007.7 1007.3 -
07/07:30pm 29.2 34.7 26.2 84 2.1 WNW 9 17 5 9 1007.3 1006.9 -
07/07:00pm 29.3 34.5 26.3 84 2.1 WNW 11 22 6 12 1006.7 1006.3 -
07/06:30pm 29.4 34.9 26.2 83 2.3 WNW 9 19 5 10 1006.8 1006.4 -
07/06:00pm 29.6 34.5 26.4 83 2.3 WNW 13 20 7 11 1006.2 1005.8 -
07/05:30pm 30.1 33.6 25.4 76 3.3 NW 17 22 9 12 1005.8 1005.4 -
07/05:00pm 30.6 33.6 23.3 65 5.0 WNW 13 22 7 12 1005.2 1004.8 -
07/04:30pm 30.7 33.1 23.6 66 4.9 NW 17 22 9 12 1004.9 1004.6 -
07/04:00pm 31.2 34.0 23.6 64 5.3 WNW 15 22 8 12 1004.4 1004.1 -
07/03:30pm 31.9 34.6 23.4 60 5.9 WNW 15 24 8 13 1004.5 1004.2 -
07/03:00pm 31.9 34.1 22.6 58 6.4 NW 15 24 8 13 1004.6 1004.3 -
07/02:30pm 32.1 34.7 23.3 59 6.1 NW 15 22 8 12 1005.1 1004.7 -
07/02:00pm 32.1 35.3 23.1 59 6.2 NW 11 17 6 9 1005.5 1005.1 -
07/01:30pm 32.1 33.9 22.5 57 6.6 NW 17 24 9 13 1005.6 1005.2 0.0
07/01:00pm 32.3 34.4 22.4 56 6.8 WNW 15 22 8 12 1005.9 1005.5 0.0
07/12:30pm 32.0 34.2 21.8 54 6.9 WNW 13 20 7 11 1006.3 1005.9 0.0
07/12:00pm 32.0 34.6 22.7 58 6.4 NW 13 20 7 11 1006.5 1006.1 0.0
07/11:30am 31.9 34.2 22.0 55 6.7 NW 13 19 7 10 1006.6 1006.2 0.0
07/11:00am 32.1 33.4 21.6 53 7.1 NW 17 24 9 13 1006.6 1006.2 0.0
07/10:30am 32.6 34.8 21.8 53 7.3 NW 13 20 7 11 1006.3 1005.9 0.0
07/10:00am 33.0 36.6 22.4 53 7.3 NW 7 17 4 9 1006.6 1006.2 0.0
07/09:30am 31.7 35.5 22.7 59 6.2 W 7 11 4 6 1007.1 1006.7 0.0
07/09:00am 30.6 34.0 23.3 65 5.0 NW 11 17 6 9 1007.2 1006.8 9.4
07/08:30am 30.5 33.9 22.7 63 5.3 NW 9 13 5 7 1007.1 1006.7 9.4
07/08:00am 29.8 33.6 23.5 69 4.4 WNW 9 15 5 8 1007.2 1006.8 9.4
07/07:30am 29.6 33.8 23.1 68 4.5 NNW 6 9 3 5 1007.0 1006.6 9.4
07/07:00am 29.4 34.5 23.4 70 4.1 SSW 2 6 1 3 1006.9 1006.5 9.4
07/06:30am 28.7 33.8 24.7 79 2.8 WNW 6 13 3 7 1006.6 1006.2 9.4
07/06:00am 26.5 32.0 24.7 90 1.3 W 4 7 2 4 1006.5 1006.1 9.4
07/05:30am 25.3 30.6 24.4 95 0.6 W 4 6 2 3 1006.4 1006.0 9.4
07/05:00am 25.1 30.2 24.6 97 0.3 NNW 6 9 3 5 1006.2 1005.8 9.4
07/04:30am 24.9 30.0 24.7 99 0.1 SW 6 9 3 5 1006.8 1006.4 9.4
07/04:00am 25.2 31.2 24.9 98 0.2 E 2 6 1 3 1006.2 1005.8 9.4
07/03:30am 25.1 30.7 24.8 98 0.2 NE 4 11 2 6 1006.8 1006.4 9.4
07/03:00am 24.7 29.1 24.5 99 0.1 NNE 9 13 5 7 1006.6 1006.2 9.4
07/02:30am 24.7 29.7 24.5 99 0.1 W 6 11 3 6 1006.7 1006.3 9.4
07/02:00am 25.0 29.6 24.7 98 0.2 SSW 9 13 5 7 1007.5 1007.1 9.4
07/01:30am 25.4 30.4 24.5 95 0.6 S 6 13 3 7 1007.3 1006.9 9.4
07/01:28am 25.4 30.4 24.5 95 0.6 SSE 6 13 3 7 1007.3 1006.9 9.4
07/01:18am 25.2 29.6 24.5 96 0.5 SE 9 19 5 10 1007.4 1007.0 9.4
07/01:00am 24.7 29.1 24.4 98 0.2 ESE 9 19 5 10 1007.1 1006.7 9.4
07/12:50am 24.5 28.1 24.3 99 0.1 ESE 13 28 7 15 1007.2 1006.8 9.4
07/12:43am 24.6 27.5 24.4 99 0.1 E 17 30 9 16 1007.2 1006.8 9.2
07/12:30am 24.5 26.9 24.3 99 0.1 ESE 19 44 10 24 1008.0 1007.6 8.8
07/12:26am 24.3 25.6 24.1 99 0.1 ESE 24 44 13 24 1008.1 1007.7 8.6
07/12:12am 24.7 27.0 22.8 89 1.3 ESE 15 54 8 29 1008.3 1007.9 2.2
07/12:00am 29.3 34.1 26.3 84 2.1 SE 13 20 7 11 1007.8 1007.4 0.0
 
Date/Time
WST
Temp
°C
App
Temp
°C
Dew
Point
°C
Rel
Hum
%
Delta-T
°C
Wind Press
QNH
hPa
Press
MSL
hPa
Rain since
9am
mm
Dir  Spd
km/h
Gust
km/h
Spd
kts
Gust
kts
06/11:51pm 29.2 34.7 26.2 84 2.1 WSW 9 19 5 10 1008.0 1007.6 0.0
06/11:30pm 29.2 33.6 26.2 84 2.1 WNW 15 24 8 13 1005.9 1005.5 0.0
06/11:00pm 29.2 34.1 26.4 85 2.0 WNW 13 24 7 13 1006.3 1005.9 0.0
06/10:30pm 29.3 34.1 26.3 84 2.1 NW 13 20 7 11 1006.3 1005.9 0.0
06/10:00pm 29.2 34.1 26.4 85 2.0 NW 13 20 7 11 1006.1 1005.7 0.0
06/09:30pm 29.2 34.1 26.4 85 2.0 WNW 13 26 7 14 1005.8 1005.4 0.0
06/09:00pm 29.3 33.0 26.3 84 2.1 WNW 19 28 10 15 1004.7 1004.4 0.0
06/08:30pm 29.5 33.7 26.5 84 2.1 NW 17 26 9 14 1004.9 1004.6 0.0
06/08:00pm 29.5 33.4 26.1 82 2.4 WNW 17 24 9 13 1005.4 1005.0 0.0
06/07:30pm 29.4 33.9 26.4 84 2.1 NW 15 22 8 12 1004.9 1004.6 0.0
06/07:00pm 29.5 33.9 26.3 83 2.3 NW 15 20 8 11 1004.5 1004.2 0.0
06/06:30pm 29.8 34.9 26.2 81 2.6 NW 11 20 6 11 1004.6 1004.3 0.0
06/06:00pm 30.0 34.2 26.0 79 2.9 NW 15 22 8 12 1004.4 1004.1 0.0
06/05:30pm 30.2 33.9 25.7 77 3.2 NW 17 24 9 13 1004.1 1003.8 0.0
06/05:00pm 30.8 34.5 26.3 77 3.2 NNW 19 26 10 14 1003.9 1003.6 0.0
06/04:30pm 30.9 33.6 26.2 76 3.4 NW 24 32 13 17 1003.1 1002.8 0.0
06/04:00pm 31.2 35.0 26.7 77 3.2 NW 20 30 11 16 1003.2 1002.9 0.0
06/03:30pm 30.6 33.8 25.9 76 3.3 NW 20 30 11 16 1003.4 1003.1 0.0
06/03:00pm 31.9 34.6 26.2 72 4.1 NW 24 33 13 18 1003.2 1002.9 0.0
06/02:30pm 32.2 35.2 25.5 67 4.8 NW 20 32 11 17 1003.2 1002.9 0.0
06/02:00pm 31.9 35.3 26.2 72 4.1 NW 20 33 11 18 1003.4 1003.1 0.0
06/01:30pm 33.3 37.1 26.8 68 4.7 NNW 20 33 11 18 1003.9 1003.6 0.0
06/01:00pm 32.4 35.3 26.0 69 4.6 NW 22 33 12 18 1004.1 1003.8 0.0
06/12:30pm 32.4 35.3 26.0 69 4.6 NW 22 30 12 16 1004.4 1004.1 0.0
06/12:00pm 31.5 34.0 25.4 70 4.3 NW 22 33 12 18 1004.7 1004.4 0.0
06/11:30am 32.3 35.2 25.9 69 4.6 NW 22 32 12 17 1004.9 1004.6 0.0
06/11:00am 31.9 34.9 25.5 69 4.6 NW 20 33 11 18 1005.3 1004.9 0.0
06/10:30am 31.6 34.6 25.5 70 4.3 NW 20 28 11 15 1005.5 1005.1 0.0
06/10:00am 32.2 37.1 25.8 69 4.6 NW 11 26 6 14 1005.8 1005.4 0.0
06/09:30am 31.8 36.0 25.9 71 4.2 WNW 15 24 8 13 1005.4 1005.0 0.0
06/09:00am 31.6 35.1 25.5 70 4.3 WNW 17 28 9 15 1005.4 1005.0 0.0
06/08:30am 31.5 36.0 25.8 72 4.1 W 13 22 7 12 1005.4 1005.0 0.0
06/08:00am 31.3 35.7 25.6 71 4.1 W 13 24 7 13 1005.3 1004.9 0.0
06/07:30am 30.2 34.6 25.7 77 3.2 W 13 22 7 12 1005.4 1005.0 0.0
06/07:00am 30.1 35.3 26.3 80 2.7 W 11 19 6 10 1005.2 1004.8 0.0
06/06:30am 29.7 35.4 26.5 83 2.3 WSW 9 17 5 9 1005.5 1005.1 0.0
06/06:00am 29.0 35.0 26.4 86 1.9 WSW 7 22 4 12 1005.5 1005.1 0.0
06/05:30am 28.7 33.3 25.9 85 2.0 W 13 26 7 14 1004.2 1003.9 0.0
06/05:00am 28.7 33.3 25.9 85 2.0 W 13 26 7 14 1004.2 1003.9 0.0
06/04:30am 28.9 32.7 25.9 84 2.1 W 17 28 9 15 1004.4 1004.1 0.0
06/04:00am 28.9 33.3 26.3 86 1.9 W 15 28 8 15 1004.4 1004.1 0.0
06/03:30am 28.9 33.2 26.1 85 2.0 W 15 28 8 15 1004.2 1003.9 0.0
06/03:00am 28.9 32.8 26.1 85 2.0 W 17 32 9 17 1004.1 1003.8 0.0
06/02:30am 28.8 32.7 26.0 85 2.0 W 17 33 9 18 1003.7 1003.4 0.0
06/02:00am 29.0 33.4 26.2 85 2.0 WNW 15 28 8 15 1004.0 1003.7 0.0
06/01:30am 28.9 33.3 26.3 86 1.9 W 15 24 8 13 1004.2 1003.9 0.0
06/01:18am 28.9 33.3 26.3 86 1.9 W 15 28 8 15 1004.4 1004.1 0.0
06/01:00am 29.1 33.2 26.3 85 2.0 W 17 28 9 15 1004.6 1004.3 0.0
06/12:35am 29.1 32.8 26.3 85 2.0 WNW 19 32 10 17 1004.6 1004.3 0.0
06/12:30am 29.0 33.1 26.4 86 1.9 WNW 17 32 9 17 1004.5 1004.2 0.0
06/12:00am 29.1 32.6 26.3 85 2.0 WNW 20 35 11 19 1004.9 1004.6 0.0
 
Date/Time
WST
Temp
°C
App
Temp
°C
Dew
Point
°C
Rel
Hum
%
Delta-T
°C
Wind Press
QNH
hPa
Press
MSL
hPa
Rain since
9am
mm
Dir  Spd
km/h
Gust
km/h
Spd
kts
Gust
kts
05/11:52pm 29.1 32.7 26.5 86 1.9 WNW 20 32 11 17 1005.1 1004.7 0.0
05/11:30pm 29.1 33.3 26.5 86 1.9 WNW 17 28 9 15 1005.3 1004.9 0.0
05/11:00pm 29.1 33.7 26.5 86 1.9 WNW 15 28 8 15 1005.6 1005.2 0.0
05/10:30pm 29.1 32.9 26.7 87 1.7 WNW 20 33 11 18 1005.4 1005.0 0.0
05/10:15pm 29.1 33.1 26.7 87 1.7 WNW 19 28 10 15 1005.6 1005.2 0.0
05/10:00pm 29.1 33.9 26.3 85 2.0 WNW 13 28 7 15 1005.6 1005.2 0.0
05/09:30pm 29.1 33.2 26.3 85 2.0 WNW 17 26 9 14 1005.6 1005.2 0.0
05/09:00pm 29.2 34.5 26.4 85 2.0 WNW 11 20 6 11 1005.9 1005.5 0.0
05/08:30pm 29.2 33.6 26.2 84 2.1 WNW 15 24 8 13 1005.8 1005.4 0.0
05/08:00pm 29.2 34.1 26.4 85 2.0 W 13 20 7 11 1005.9 1005.5 0.0
05/07:30pm 29.3 34.5 26.3 84 2.1 WNW 11 20 6 11 1005.5 1005.1 0.0
05/07:21pm 29.3 34.6 26.5 85 2.0 WNW 11 26 6 14 1005.4 1005.0 0.0
05/07:00pm 29.4 34.4 26.6 85 2.0 WNW 13 22 7 12 1005.1 1004.7 0.0
05/06:30pm 29.4 34.2 26.8 86 1.9 WNW 15 24 8 13 1004.5 1004.2 0.0
05/06:00pm 29.7 34.6 26.9 85 2.0 WNW 15 28 8 15 1003.9 1003.6 0.0
05/05:30pm 29.7 33.5 26.5 83 2.3 WNW 19 30 10 16 1003.8 1003.5 0.0
05/05:27pm 30.0 34.0 27.0 84 2.2 WNW 20 32 11 17 1003.8 1003.5 0.0
05/05:17pm 29.8 33.4 26.2 81 2.6 WNW 19 33 10 18 1003.8 1003.5 0.0
05/05:00pm 30.2 33.0 26.4 80 2.7 WNW 24 33 13 18 1003.6 1003.3 0.0
05/04:30pm 30.4 33.1 26.3 79 2.9 NW 24 33 13 18 1003.7 1003.4 0.0
05/04:09pm 30.8 34.3 26.3 77 3.2 NW 20 32 11 17 1003.7 1003.4 0.0
05/04:00pm 30.7 33.4 26.2 77 3.2 WNW 24 37 13 20 1003.7 1003.4 0.0
05/03:37pm 30.8 33.5 26.3 77 3.2 NW 24 33 13 18 1004.0 1003.7 0.0
05/03:30pm 31.1 34.3 26.4 76 3.4 NW 22 32 12 17 1004.1 1003.8 0.0
05/03:00pm 31.1 33.6 25.9 74 3.7 NW 24 35 13 19 1004.2 1003.9 0.0
05/02:30pm 31.5 34.9 26.1 73 3.9 NW 20 30 11 16 1004.5 1004.2 0.0
05/02:01pm 32.3 35.4 26.8 73 4.0 NW 24 33 13 18 1004.5 1004.2 0.0
05/02:00pm 31.6 34.4 26.4 74 3.7 NW 24 33 13 18 1004.5 1004.2 0.0
05/01:58pm 31.4 34.2 26.4 75 3.6 NW 24 35 13 19 1004.5 1004.2 0.0
05/01:30pm 31.8 34.3 25.9 71 4.2 NW 24 39 13 21 1004.9 1004.6 0.0
05/01:00pm 31.6 35.2 26.4 74 3.7 NW 20 33 11 18 1005.4 1005.0 0.0
05/12:30pm 31.7 34.9 25.5 69 4.4 WNW 19 28 10 15 1005.9 1005.5 0.0
05/12:00pm 31.7 35.4 25.8 71 4.2 WNW 17 28 9 15 1006.2 1005.8 0.0
05/11:30am 32.5 36.6 26.3 70 4.5 WNW 17 28 9 15 1006.7 1006.3 0.0
05/11:00am 31.5 34.9 25.8 72 4.1 WNW 19 26 10 14 1007.2 1006.8 0.0
05/10:30am 32.0 35.4 25.8 69 4.4 NW 19 32 10 17 1007.3 1006.9 0.0
05/10:00am 32.3 36.1 25.9 69 4.6 WNW 17 28 9 15 1007.8 1007.4 0.0
05/09:30am 32.0 35.4 24.1 63 5.5 W 13 20 7 11 1008.0 1007.6 0.0
05/09:00am 32.0 36.1 25.8 69 4.4 WNW 15 24 8 13 1008.2 1007.8 0.0
05/08:30am 31.4 35.7 25.5 71 4.2 W 13 28 7 15 1008.2 1007.8 0.0
05/08:00am 31.7 36.7 26.5 74 3.7 WSW 13 22 7 12 1008.4 1008.0 0.0
05/07:30am 30.4 34.6 25.9 77 3.2 W 15 26 8 14 1008.1 1007.7 0.0
05/07:00am 30.3 34.9 26.0 78 3.1 W 13 26 7 14 1007.8 1007.4 0.0
05/06:30am 29.7 34.8 26.1 81 2.6 W 11 20 6 11 1007.7 1007.3 0.0
05/06:00am 29.0 34.4 26.0 84 2.1 W 9 20 5 11 1007.5 1007.1 0.0

Other formats

Comma delimited format used in spreadsheet applications
http://www.bom.gov.au/fwo/IDW60801/IDW60801.99206.axf

JavaScript Object Notation format (JSON) in row-major order
http://www.bom.gov.au/fwo/IDW60801/IDW60801.99206.json

Data quality

Most of these data are generated automatically and are frequently updated. Quality checks on data are not normally performed. It is possible for incorrect values to appear. Refer to information at About Latest Weather Observations and please check the disclaimer before using these data.